地図

経路データ

SID SEASON NUMBER BASIN SUBBASIN NAME ISO_TIME NATURE LAT LON WMO_WIND WMO_PRES WMO_AGENCY TRACK_TYPE DIST2LAND LANDFALL IFLAG USA_AGENCY USA_ATCF_ID USA_LAT USA_LON USA_RECORD USA_STATUS USA_WIND USA_PRES USA_SSHS USA_R34_NE USA_R34_SE USA_R34_SW USA_R34_NW USA_R50_NE USA_R50_SE USA_R50_SW USA_R50_NW USA_R64_NE USA_R64_SE USA_R64_SW USA_R64_NW USA_POCI USA_ROCI USA_RMW USA_EYE TOKYO_LAT TOKYO_LON TOKYO_GRADE TOKYO_WIND TOKYO_PRES TOKYO_R50_DIR TOKYO_R50_LONG TOKYO_R50_SHORT TOKYO_R30_DIR TOKYO_R30_LONG TOKYO_R30_SHORT TOKYO_LAND CMA_LAT CMA_LON CMA_CAT CMA_WIND CMA_PRES HKO_LAT HKO_LON HKO_CAT HKO_WIND HKO_PRES NEWDELHI_LAT NEWDELHI_LON NEWDELHI_GRADE NEWDELHI_WIND NEWDELHI_PRES NEWDELHI_CI NEWDELHI_DP NEWDELHI_POCI REUNION_LAT REUNION_LON REUNION_TYPE REUNION_WIND REUNION_PRES REUNION_TNUM REUNION_CI REUNION_RMW REUNION_R34_NE REUNION_R34_SE REUNION_R34_SW REUNION_R34_NW REUNION_R50_NE REUNION_R50_SE REUNION_R50_SW REUNION_R50_NW REUNION_R64_NE REUNION_R64_SE REUNION_R64_SW REUNION_R64_NW BOM_LAT BOM_LON BOM_TYPE BOM_WIND BOM_PRES BOM_TNUM BOM_CI BOM_RMW BOM_R34_NE BOM_R34_SE BOM_R34_SW BOM_R34_NW BOM_R50_NE BOM_R50_SE BOM_R50_SW BOM_R50_NW BOM_R64_NE BOM_R64_SE BOM_R64_SW BOM_R64_NW BOM_ROCI BOM_POCI BOM_EYE BOM_POS_METHOD BOM_PRES_METHOD NADI_LAT NADI_LON NADI_CAT NADI_WIND NADI_PRES WELLINGTON_LAT WELLINGTON_LON WELLINGTON_WIND WELLINGTON_PRES DS824_LAT DS824_LON DS824_STAGE DS824_WIND DS824_PRES TD9636_LAT TD9636_LON TD9636_STAGE TD9636_WIND TD9636_PRES TD9635_LAT TD9635_LON TD9635_WIND TD9635_PRES TD9635_ROCI NEUMANN_LAT NEUMANN_LON NEUMANN_CLASS NEUMANN_WIND NEUMANN_PRES MLC_LAT MLC_LON MLC_CLASS MLC_WIND MLC_PRES USA_GUST BOM_GUST BOM_GUST_PER REUNION_GUST REUNION_GUST_PER USA_SEAHGT USA_SEARAD_NE USA_SEARAD_SE USA_SEARAD_SW USA_SEARAD_NW STORM_SPEED STORM_DIR
1909070S14420 1909 16 SI MM NOT_NAMED 1909-03-10 18:00:00 NR -14.1000 59.6500 main 704 690 __________O___ -1 -13.9000 59.3000 7 3 230
1909070S14420 1909 16 SI MM NOT_NAMED 1909-03-10 21:00:00 NR -14.1844 59.5461 main 687 673 __________P___ -1 -13.9938 59.0923 7 3 230
1909070S14420 1909 16 SI MM NOT_NAMED 1909-03-11 00:00:00 NR -14.2750 59.4388 main 673 660 __________P___ -1 -14.0901 58.8776 7 3 228
1909070S14420 1909 16 SI MM NOT_NAMED 1909-03-11 03:00:00 NR -14.3781 59.3245 main 660 646 __________P___ -1 -14.1913 58.6491 7 3 226
1909070S14420 1909 16 SI MM NOT_NAMED 1909-03-11 06:00:00 NR -14.5000 59.2000 main 646 633 __________O___ -1 -14.3000 58.4000 7 4 223
1909070S14420 1909 16 SI MM NOT_NAMED 1909-03-11 09:00:00 NR -14.6445 59.0628 main 633 606 __________P___ -1 -14.4178 58.1256 7 4 222
1909070S14420 1909 16 SI MM NOT_NAMED 1909-03-11 12:00:00 NR -14.8062 58.9150 main 606 589 __________P___ -1 -14.5424 57.8299 7 5 238
1909070S14420 1909 16 SI MM NOT_NAMED 1909-03-11 15:00:00 NR -14.9335 58.5825 main 589 573 __________P___ -1 -14.6709 57.5193 7 8 253
1909070S14420 1909 16 SI MM NOT_NAMED 1909-03-11 18:00:00 NR -15.0333 58.1333 main 572 559 __________O___ -1 -14.8000 57.2000 7 11 263
1909070S14420 1909 16 SI MM NOT_NAMED 1909-03-11 21:00:00 NR -15.0694 57.5015 main 559 559 __________P___ -1 -14.9128 56.8779 7 15 270
1909070S14420 1909 16 SI MM NOT_NAMED 1909-03-12 00:00:00 NR -15.0274 56.5497 main 580 571 __________P___ -1 -15.0274 56.5497 7 12 266
1909070S14420 1909 16 SI MM NOT_NAMED 1909-03-12 03:00:00 NR -15.1534 56.2216 main 565 560 __________P___ -1 -15.1534 56.2216 7 7 246
1909070S14420 1909 16 SI MM NOT_NAMED 1909-03-12 06:00:00 NR -15.3000 55.9000 main 563 546 __________O___ -1 -15.3000 55.9000 7 7 242
1909070S14420 1909 16 SI MM NOT_NAMED 1909-03-12 09:00:00 NR -15.4740 55.6088 main 546 515 __________P___ -1 -15.4740 55.6088 7 7 236
1909070S14420 1909 16 SI MM NOT_NAMED 1909-03-12 12:00:00 NR -15.6695 55.3221 main 515 485 __________P___ -1 -15.6695 55.3221 7 7 234
1909070S14420 1909 16 SI MM NOT_NAMED 1909-03-12 15:00:00 NR -15.8802 55.0244 main 485 456 __________P___ -1 -15.8802 55.0244 7 7 234
1909070S14420 1909 16 SI MM NOT_NAMED 1909-03-12 18:00:00 NR -16.1000 54.7000 main 456 418 __________O___ -1 -16.1000 54.7000 7 8 238
1909070S14420 1909 16 SI MM NOT_NAMED 1909-03-12 21:00:00 NR -16.3101 54.2964 main 418 383 __________P___ -1 -16.3101 54.2964 7 9 242
1909070S14420 1909 16 SI MM NOT_NAMED 1909-03-13 00:00:00 NR -16.5281 53.8702 main 383 352 __________P___ -1 -16.5281 53.8702 7 9 241
1909070S14420 1909 16 SI MM NOT_NAMED 1909-03-13 03:00:00 NR -16.7570 53.4589 main 356 327 __________P___ -1 -16.7570 53.4589 7 9 237
1909070S14420 1909 16 SI MM NOT_NAMED 1909-03-13 06:00:00 NR -17.0000 53.1000 main 327 313 __________O___ -1 -17.0000 53.1000 7 8 230
1909070S14420 1909 16 SI MM NOT_NAMED 1909-03-13 09:00:00 NR -17.2480 52.8380 main 307 305 __________P___ -1 -17.2480 52.8380 7 7 221
1909070S14420 1909 16 SI MM NOT_NAMED 1909-03-13 12:00:00 NR -17.5120 52.6319 main 305 303 __________P___ -1 -17.5120 52.6319 7 7 213
1909070S14420 1909 16 SI MM NOT_NAMED 1909-03-13 15:00:00 NR -17.7950 52.4599 main 307 297 __________P___ -1 -17.7950 52.4599 7 7 208
1909070S14420 1909 16 SI MM NOT_NAMED 1909-03-13 18:00:00 NR -18.1000 52.3000 main 299 285 __________O___ -1 -18.1000 52.3000 7 8 208
1909070S14420 1909 16 SI MM NOT_NAMED 1909-03-13 21:00:00 NR -18.4650 52.0898 main 286 269 __________P___ -1 -18.4650 52.0898 7 8 208
1909070S14420 1909 16 SI MM NOT_NAMED 1909-03-14 00:00:00 NR -18.8451 51.8906 main 272 262 __________P___ -1 -18.8451 51.8906 7 8 205
1909070S14420 1909 16 SI MM NOT_NAMED 1909-03-14 03:00:00 NR -19.2026 51.7210 main 266 264 __________P___ -1 -19.2026 51.7210 7 7 203
1909070S14420 1909 16 SI MM NOT_NAMED 1909-03-14 06:00:00 NR -19.5000 51.6000 main 267 263 __________O___ -1 -19.5000 51.6000 7 5 199
1909070S14420 1909 16 SI MM NOT_NAMED 1909-03-14 09:00:00 NR -19.6855 51.5452 main 263 263 __________P___ -1 -19.6855 51.5452 7 3 189
1909070S14420 1909 16 SI MM NOT_NAMED 1909-03-14 12:00:00 NR -19.8099 51.5395 main 267 267 __________P___ -1 -19.8099 51.5395 7 2 173
1909070S14420 1909 16 SI MM NOT_NAMED 1909-03-14 15:00:00 NR -19.9043 51.5641 main 280 280 __________P___ -1 -19.9043 51.5641 7 2 164
1909070S14420 1909 16 SI MM NOT_NAMED 1909-03-14 18:00:00 NR -20.0000 51.6000 main 284 284 __________O___ -1 -20.0000 51.6000 7 2 170
1909070S14420 1909 16 SI MM NOT_NAMED 1909-03-14 21:00:00 NR -20.1103 51.6018 main 289 289 __________P___ -1 -20.1103 51.6018 7 2 173
1909070S14420 1909 16 SI MM NOT_NAMED 1909-03-15 00:00:00 NR -20.2325 51.6129 main 293 293 __________P___ -1 -20.2325 51.6129 7 3 174
1909070S14420 1909 16 SI MM NOT_NAMED 1909-03-15 03:00:00 NR -20.3884 51.6425 main 295 295 __________P___ -1 -20.3884 51.6425 7 4 168
1909070S14420 1909 16 SI MM NOT_NAMED 1909-03-15 06:00:00 NR -20.6000 51.7000 main 309 309 __________O___ -1 -20.6000 51.7000 7 5 166
1909070S14420 1909 16 SI MM NOT_NAMED 1909-03-15 09:00:00 NR -20.9168 51.7798 main 328 328 __________P___ -1 -20.9168 51.7798 7 7 165
1909070S14420 1909 16 SI MM NOT_NAMED 1909-03-15 12:00:00 NR -21.2849 51.8898 main 342 334 __________P___ -1 -21.2849 51.8898 7 8 163
1909070S14420 1909 16 SI MM NOT_NAMED 1909-03-15 15:00:00 NR -21.6605 52.0299 main 337 322 __________P___ -1 -21.6605 52.0299 7 8 158
1909070S14420 1909 16 SI MM NOT_NAMED 1909-03-15 18:00:00 NR -22.0000 52.2000 main 326 319 __________O___ -1 -22.0000 52.2000 7 6 152
1909070S14420 1909 16 SI MM NOT_NAMED 1909-03-15 21:00:00 NR -22.2264 52.3566 main 314 309 __________P___ -1 -22.2264 52.3566 7 5 142
1909070S14420 1909 16 SI MM NOT_NAMED 1909-03-16 00:00:00 NR -22.4142 52.5465 main 313 295 __________P___ -1 -22.4142 52.5465 7 5 133
1909070S14420 1909 16 SI MM NOT_NAMED 1909-03-16 03:00:00 NR -22.5949 52.7881 main 295 281 __________P___ -1 -22.5949 52.7881 7 6 127
1909070S14420 1909 16 SI MM NOT_NAMED 1909-03-16 06:00:00 NR -22.8000 53.1000 main 281 272 __________O___ -1 -22.8000 53.1000 7 8 127
1909070S14420 1909 16 SI MM NOT_NAMED 1909-03-16 09:00:00 NR -23.0877 53.4943 main 273 265 __________P___ -1 -23.0877 53.4943 7 10 127
1909070S14420 1909 16 SI MM NOT_NAMED 1909-03-16 12:00:00 NR -23.4003 53.9590 main 270 270 __________P___ -1 -23.4003 53.9590 7 11 125
1909070S14420 1909 16 SI MM NOT_NAMED 1909-03-16 15:00:00 NR -23.7126 54.4694 main 280 280 __________P___ -1 -23.7126 54.4694 7 11 122
1909070S14420 1909 16 SI MM NOT_NAMED 1909-03-16 18:00:00 NR -24.0000 55.0000 main 297 295 __________O___ -1 -24.0000 55.0000 7 11 119
1909070S14420 1909 16 SI MM NOT_NAMED 1909-03-16 21:00:00 NR -24.2409 55.5232 main 313 313 __________P___ -1 -24.2409 55.5232 7 11 115
1909070S14420 1909 16 SI MM NOT_NAMED 1909-03-17 00:00:00 NR -24.4525 56.0579 main 350 350 __________P___ -1 -24.4525 56.0579 7 10 112
1909070S14420 1909 16 SI MM NOT_NAMED 1909-03-17 03:00:00 NR -24.6378 56.5887 main 372 372 __________P___ -1 -24.6378 56.5887 7 10 110
1909070S14420 1909 16 SI MM NOT_NAMED 1909-03-17 06:00:00 NR -24.8000 57.1000 main 409 409 __________O___ -1 -24.8000 57.1000 7 10 109
1909070S14420 1909 16 SI MM NOT_NAMED 1909-03-17 09:00:00 NR -24.9503 57.5964 main 451 451 __________P___ -1 -24.9503 57.5964 7 9 108
1909070S14420 1909 16 SI MM NOT_NAMED 1909-03-17 12:00:00 NR -25.0797 58.0681 main 485 485 __________P___ -1 -25.0797 58.0681 7 9 107
1909070S14420 1909 16 SI MM NOT_NAMED 1909-03-17 15:00:00 NR -25.1942 58.5056 main 515 515 __________P___ -1 -25.1942 58.5056 7 8 106
1909070S14420 1909 16 SI MM NOT_NAMED 1909-03-17 18:00:00 NR -25.3000 58.9000 main 547 547 __________O___ -1 -25.3000 58.9000 7 7 107
1909070S14420 1909 16 SI MM NOT_NAMED 1909-03-17 21:00:00 NR -25.4023 59.2457 main 568 568 __________P___ -1 -25.4023 59.2457 7 6 109
1909070S14420 1909 16 SI MM NOT_NAMED 1909-03-18 00:00:00 NR -25.5027 59.5521 main 591 591 __________P___ -1 -25.5027 59.5521 7 6 111
1909070S14420 1909 16 SI MM NOT_NAMED 1909-03-18 03:00:00 NR -25.6018 59.8325 main 609 609 __________P___ -1 -25.6018 59.8325 7 5 112
1909070S14420 1909 16 SI MM NOT_NAMED 1909-03-18 06:00:00 NR -25.7000 60.1000 main 630 __________O___ -1 -25.7000 60.1000 7 5 112

IBTrACS Databaseについて

本データベースは、米国NOAAが公開する1842年以降の世界の熱帯低気圧のベストトラックデータアーカイブInternational Best Track Archive for Climate Stewardship (IBTrACS)を、ウェブで閲覧しやすい形式に変換したものです。

最終更新日:2021-10-21